SQH weather

Na-San Airport
Son-La, Son La Province, Vietnam

Public forecast

Using degrees Celsius for public forecast. Weather courtesy of forecast.io.

METAR (pilot weather report)

Closest report is Noi Bai International Airport, 99.3 nm (183.9 km) E. Retrieved 2019/04/21 08:30 UTC (0 seconds ago):

VVNB 210830Z 11009KT 9999 SCT030 32/25 Q1001 NOSIG

TAF (pilot weather forecast)

Closest forecast is Noi Bai International Airport, 99.3 nm (183.9 km) E. Retrieved 2019/04/21 06:38 UTC (2 hours ago):

TAF VVNB 210500Z 2106/2206 12008KT 8000 SCT017 BECMG 2120/2121 4000 BR BECMG 2201/2202 7000 NSW